Terminal Aerodrome Forecast
Issued by NWS

Home | Current Version | Previous Version | Graphics & Text | Print | Product List | Glossary On
Versions: 1 2 3 4 5 6 7 8 9 10 11 12 13 14 15 16 17
000
FTUS43 KMPX 230520
TAFRNH
TAF
KRNH 230520Z 2306/2406 36007KT P6SM BKN050
     FM231600 01008KT P6SM OVC035 PROB30 2317/2323 -SHRA BKN025
     FM240100 02006KT P6SM BKN040=

USA.gov is the U.S. government's official web portal to all federal, state and local government web resources and services.